sensor_id;sensor_type;location;lat;lon;timestamp;pressure;altitude;pressure_sealevel;temperature;humidity
59513;BME280;45330;51.634;5.562;2023-04-25T00:01:20;101008.34;;;4.85;100.00
59513;BME280;45330;51.634;5.562;2023-04-25T00:03:47;101019.38;;;4.76;100.00
59513;BME280;45330;51.634;5.562;2023-04-25T00:06:12;101014.78;;;4.62;100.00
59513;BME280;45330;51.634;5.562;2023-04-25T00:08:38;100993.66;;;4.38;100.00
59513;BME280;45330;51.634;5.562;2023-04-25T00:11:04;101011.66;;;4.36;100.00
59513;BME280;45330;51.634;5.562;2023-04-25T00:13:29;101016.84;;;4.38;100.00
59513;BME280;45330;51.634;5.562;2023-04-25T00:15:55;101007.97;;;4.25;100.00
59513;BME280;45330;51.634;5.562;2023-04-25T00:18:22;101029.47;;;4.27;100.00
59513;BME280;45330;51.634;5.562;2023-04-25T00:20:47;101012.84;;;4.12;100.00
59513;BME280;45330;51.634;5.562;2023-04-25T00:23:16;101040.41;;;4.17;100.00
59513;BME280;45330;51.634;5.562;2023-04-25T00:25:45;101020.38;;;4.05;100.00
59513;BME280;45330;51.634;5.562;2023-04-25T00:28:12;101036.78;;;4.08;100.00
59513;BME280;45330;51.634;5.562;2023-04-25T00:30:38;101048.72;;;4.06;100.00
59513;BME280;45330;51.634;5.562;2023-04-25T00:33:03;101046.97;;;4.04;100.00
59513;BME280;45330;51.634;5.562;2023-04-25T00:35:29;101044.31;;;4.01;100.00
59513;BME280;45330;51.634;5.562;2023-04-25T00:37:54;101048.59;;;4.00;100.00
59513;BME280;45330;51.634;5.562;2023-04-25T00:40:20;101026.94;;;3.92;100.00
59513;BME280;45330;51.634;5.562;2023-04-25T00:42:46;101041.72;;;4.01;100.00
59513;BME280;45330;51.634;5.562;2023-04-25T00:45:13;101018.34;;;3.91;100.00
59513;BME280;45330;51.634;5.562;2023-04-25T00:47:40;101026.41;;;4.05;100.00
59513;BME280;45330;51.634;5.562;2023-04-25T00:50:06;101034.28;;;4.11;100.00
59513;BME280;45330;51.634;5.562;2023-04-25T00:52:32;101037.66;;;4.10;100.00
59513;BME280;45330;51.634;5.562;2023-04-25T00:54:57;101022.00;;;4.00;100.00
59513;BME280;45330;51.634;5.562;2023-04-25T00:57:23;101036.69;;;4.04;100.00
59513;BME280;45330;51.634;5.562;2023-04-25T00:59:50;101044.31;;;4.01;100.00
59513;BME280;45330;51.634;5.562;2023-04-25T01:02:17;101021.63;;;3.84;100.00
59513;BME280;45330;51.634;5.562;2023-04-25T01:04:42;101026.63;;;3.80;100.00
59513;BME280;45330;51.634;5.562;2023-04-25T01:07:09;101037.91;;;3.83;100.00
59513;BME280;45330;51.634;5.562;2023-04-25T01:09:35;101023.06;;;3.73;100.00
59513;BME280;45330;51.634;5.562;2023-04-25T01:12:01;101015.25;;;3.70;100.00
59513;BME280;45330;51.634;5.562;2023-04-25T01:14:26;101043.69;;;3.74;100.00
59513;BME280;45330;51.634;5.562;2023-04-25T01:16:52;101024.53;;;3.63;100.00
59513;BME280;45330;51.634;5.562;2023-04-25T01:19:19;101048.81;;;3.73;100.00
59513;BME280;45330;51.634;5.562;2023-04-25T01:21:45;101047.09;;;3.73;100.00
59513;BME280;45330;51.634;5.562;2023-04-25T01:24:11;101052.19;;;3.72;100.00
59513;BME280;45330;51.634;5.562;2023-04-25T01:26:37;101049.59;;;3.70;100.00
59513;BME280;45330;51.634;5.562;2023-04-25T01:29:07;101040.03;;;3.66;100.00
59513;BME280;45330;51.634;5.562;2023-04-25T01:31:34;101058.38;;;3.78;100.00
59513;BME280;45330;51.634;5.562;2023-04-25T01:34:00;101066.22;;;3.83;100.00
59513;BME280;45330;51.634;5.562;2023-04-25T01:36:25;101040.97;;;3.70;100.00
59513;BME280;45330;51.634;5.562;2023-04-25T01:38:52;101056.66;;;3.79;100.00
59513;BME280;45330;51.634;5.562;2023-04-25T01:41:17;101064.31;;;3.76;100.00
59513;BME280;45330;51.634;5.562;2023-04-25T01:43:43;101064.38;;;3.79;100.00
59513;BME280;45330;51.634;5.562;2023-04-25T01:46:10;101062.72;;;3.81;100.00
59513;BME280;45330;51.634;5.562;2023-04-25T01:48:36;101045.53;;;3.80;100.00
59513;BME280;45330;51.634;5.562;2023-04-25T01:51:01;101041.38;;;3.85;100.00
59513;BME280;45330;51.634;5.562;2023-04-25T01:53:27;101065.94;;;4.07;100.00
59513;BME280;45330;51.634;5.562;2023-04-25T01:55:52;101066.09;;;4.14;100.00
59513;BME280;45330;51.634;5.562;2023-04-25T01:58:18;101050.56;;;4.10;100.00
59513;BME280;45330;51.634;5.562;2023-04-25T02:00:43;101054.94;;;4.15;100.00
59513;BME280;45330;51.634;5.562;2023-04-25T02:03:09;101054.97;;;4.16;100.00
59513;BME280;45330;51.634;5.562;2023-04-25T02:05:38;101062.69;;;4.16;100.00
59513;BME280;45330;51.634;5.562;2023-04-25T02:08:06;101059.19;;;4.12;100.00
59513;BME280;45330;51.634;5.562;2023-04-25T02:10:32;101060.88;;;4.12;100.00
59513;BME280;45330;51.634;5.562;2023-04-25T02:12:57;101075.75;;;4.22;100.00
59513;BME280;45330;51.634;5.562;2023-04-25T02:15:23;101053.97;;;4.09;100.00
59513;BME280;45330;51.634;5.562;2023-04-25T02:17:49;101062.41;;;4.02;100.00
59513;BME280;45330;51.634;5.562;2023-04-25T02:20:14;101064.88;;;3.99;100.00
59513;BME280;45330;51.634;5.562;2023-04-25T02:22:41;101081.28;;;4.03;100.00
59513;BME280;45330;51.634;5.562;2023-04-25T02:25:07;101061.84;;;3.81;100.00
59513;BME280;45330;51.634;5.562;2023-04-25T02:27:34;101066.84;;;3.74;100.00
59513;BME280;45330;51.634;5.562;2023-04-25T02:29:59;101068.50;;;3.72;100.00
59513;BME280;45330;51.634;5.562;2023-04-25T02:32:25;101092.69;;;3.79;100.00
59513;BME280;45330;51.634;5.562;2023-04-25T02:34:52;101073.44;;;3.63;100.00
59513;BME280;45330;51.634;5.562;2023-04-25T02:37:17;101069.84;;;3.58;100.00
59513;BME280;45330;51.634;5.562;2023-04-25T02:39:42;101082.69;;;3.56;100.00
59513;BME280;45330;51.634;5.562;2023-04-25T02:42:08;101082.47;;;3.49;100.00
59513;BME280;45330;51.634;5.562;2023-04-25T02:44:33;101072.72;;;3.37;100.00
59513;BME280;45330;51.634;5.562;2023-04-25T02:46:58;101081.16;;;3.31;100.00
59513;BME280;45330;51.634;5.562;2023-04-25T02:49:24;101082.75;;;3.28;100.00
59513;BME280;45330;51.634;5.562;2023-04-25T02:51:49;101072.97;;;3.14;100.00
59513;BME280;45330;51.634;5.562;2023-04-25T02:54:14;101076.25;;;3.08;100.00
59513;BME280;45330;51.634;5.562;2023-04-25T02:56:40;101086.66;;;3.13;100.00
59513;BME280;45330;51.634;5.562;2023-04-25T02:59:05;101096.00;;;3.09;100.00
59513;BME280;45330;51.634;5.562;2023-04-25T03:01:31;101094.03;;;3.02;100.00
59513;BME280;45330;51.634;5.562;2023-04-25T03:03:56;101095.59;;;2.96;100.00
59513;BME280;45330;51.634;5.562;2023-04-25T03:06:21;101096.25;;;2.88;100.00
59513;BME280;45330;51.634;5.562;2023-04-25T03:08:47;101070.09;;;2.73;100.00
59513;BME280;45330;51.634;5.562;2023-04-25T03:11:12;101086.59;;;2.81;100.00
59513;BME280;45330;51.634;5.562;2023-04-25T03:13:37;101093.50;;;2.84;100.00
59513;BME280;45330;51.634;5.562;2023-04-25T03:16:03;101085.00;;;2.85;100.00
59513;BME280;45330;51.634;5.562;2023-04-25T03:18:28;101093.75;;;2.91;100.00
59513;BME280;45330;51.634;5.562;2023-04-25T03:20:54;101098.25;;;2.99;100.00
59513;BME280;45330;51.634;5.562;2023-04-25T03:23:19;101101.97;;;3.08;100.00
59513;BME280;45330;51.634;5.562;2023-04-25T03:25:45;101080.44;;;3.06;100.00
59513;BME280;45330;51.634;5.562;2023-04-25T03:28:10;101076.41;;;3.15;100.00
59513;BME280;45330;51.634;5.562;2023-04-25T03:30:36;101088.03;;;3.32;100.00
59513;BME280;45330;51.634;5.562;2023-04-25T03:33:01;101077.69;;;3.29;100.00
59513;BME280;45330;51.634;5.562;2023-04-25T03:35:26;101095.19;;;3.42;100.00
59513;BME280;45330;51.634;5.562;2023-04-25T03:37:52;101096.06;;;3.44;100.00
59513;BME280;45330;51.634;5.562;2023-04-25T03:40:17;101075.16;;;3.31;100.00
59513;BME280;45330;51.634;5.562;2023-04-25T03:42:42;101099.34;;;3.39;100.00
59513;BME280;45330;51.634;5.562;2023-04-25T03:45:08;101100.06;;;3.33;100.00
59513;BME280;45330;51.634;5.562;2023-04-25T03:47:33;101098.16;;;3.26;100.00
59513;BME280;45330;51.634;5.562;2023-04-25T03:49:59;101092.53;;;3.09;100.00
59513;BME280;45330;51.634;5.562;2023-04-25T03:52:26;101081.06;;;2.98;100.00
59513;BME280;45330;51.634;5.562;2023-04-25T03:54:52;101097.50;;;3.03;100.00
59513;BME280;45330;51.634;5.562;2023-04-25T03:57:17;101099.16;;;3.01;100.00
59513;BME280;45330;51.634;5.562;2023-04-25T03:59:42;101075.69;;;2.88;100.00
59513;BME280;45330;51.634;5.562;2023-04-25T04:02:08;101094.66;;;2.94;100.00
59513;BME280;45330;51.634;5.562;2023-04-25T04:04:33;101081.56;;;2.84;100.00
59513;BME280;45330;51.634;5.562;2023-04-25T04:06:58;101103.25;;;2.94;100.00
59513;BME280;45330;51.634;5.562;2023-04-25T04:09:24;101100.50;;;2.88;100.00
59513;BME280;45330;51.634;5.562;2023-04-25T04:11:50;101116.31;;;3.02;100.00
59513;BME280;45330;51.634;5.562;2023-04-25T04:14:15;101117.25;;;3.04;100.00
59513;BME280;45330;51.634;5.562;2023-04-25T04:16:41;101100.69;;;2.94;100.00
59513;BME280;45330;51.634;5.562;2023-04-25T04:19:06;101106.84;;;3.01;100.00
59513;BME280;45330;51.634;5.562;2023-04-25T04:21:32;101126.13;;;3.14;100.00
59513;BME280;45330;51.634;5.562;2023-04-25T04:23:58;101122.72;;;3.16;100.00
59513;BME280;45330;51.634;5.562;2023-04-25T04:26:25;101115.88;;;3.15;100.00
59513;BME280;45330;51.634;5.562;2023-04-25T04:28:51;101107.84;;;3.04;100.00
59513;BME280;45330;51.634;5.562;2023-04-25T04:31:17;101108.00;;;3.11;100.00
59513;BME280;45330;51.634;5.562;2023-04-25T04:33:44;101126.31;;;3.21;100.00
59513;BME280;45330;51.634;5.562;2023-04-25T04:36:10;101129.91;;;3.26;100.00
59513;BME280;45330;51.634;5.562;2023-04-25T04:38:36;101125.56;;;3.25;100.00
59513;BME280;45330;51.634;5.562;2023-04-25T04:41:01;101136.22;;;3.38;100.00
59513;BME280;45330;51.634;5.562;2023-04-25T04:43:27;101136.34;;;3.42;100.00
59513;BME280;45330;51.634;5.562;2023-04-25T04:45:53;101120.94;;;3.44;100.00
59513;BME280;45330;51.634;5.562;2023-04-25T04:48:21;101141.31;;;3.68;100.00
59513;BME280;45330;51.634;5.562;2023-04-25T04:50:47;101141.66;;;3.81;100.00
59513;BME280;45330;51.634;5.562;2023-04-25T04:53:12;101138.59;;;3.95;100.00
59513;BME280;45330;51.634;5.562;2023-04-25T04:55:38;101139.75;;;4.07;100.00
59513;BME280;45330;51.634;5.562;2023-04-25T04:58:06;101152.09;;;4.20;100.00
59513;BME280;45330;51.634;5.562;2023-04-25T05:00:31;101145.31;;;4.24;100.00
59513;BME280;45330;51.634;5.562;2023-04-25T05:02:58;101136.81;;;4.26;100.00
59513;BME280;45330;51.634;5.562;2023-04-25T05:05:23;101165.53;;;4.42;100.00
59513;BME280;45330;51.634;5.562;2023-04-25T05:07:49;101167.25;;;4.43;100.00
59513;BME280;45330;51.634;5.562;2023-04-25T05:10:18;101175.97;;;4.48;100.00
59513;BME280;45330;51.634;5.562;2023-04-25T05:12:44;101150.88;;;4.41;100.00
59513;BME280;45330;51.634;5.562;2023-04-25T05:15:10;101178.84;;;4.60;100.00
59513;BME280;45330;51.634;5.562;2023-04-25T05:17:36;101185.75;;;4.61;100.00
59513;BME280;45330;51.634;5.562;2023-04-25T05:20:01;101184.41;;;4.79;100.00
59513;BME280;45330;51.634;5.562;2023-04-25T05:22:27;101184.31;;;5.98;100.00
59513;BME280;45330;51.634;5.562;2023-04-25T05:24:52;101167.81;;;6.98;100.00
59513;BME280;45330;51.634;5.562;2023-04-25T05:27:18;101198.88;;;6.98;100.00
59513;BME280;45330;51.634;5.562;2023-04-25T05:29:44;101187.59;;;6.40;100.00
59513;BME280;45330;51.634;5.562;2023-04-25T05:32:09;101186.78;;;5.95;100.00
59513;BME280;45330;51.634;5.562;2023-04-25T05:34:35;101181.94;;;5.64;100.00
59513;BME280;45330;51.634;5.562;2023-04-25T05:37:00;101191.09;;;5.48;100.00
59513;BME280;45330;51.634;5.562;2023-04-25T05:39:26;101190.81;;;5.35;100.00
59513;BME280;45330;51.634;5.562;2023-04-25T05:41:52;101213.28;;;5.40;100.00
59513;BME280;45330;51.634;5.562;2023-04-25T05:44:17;101201.31;;;5.44;100.00
59513;BME280;45330;51.634;5.562;2023-04-25T05:46:43;101211.59;;;5.42;100.00
59513;BME280;45330;51.634;5.562;2023-04-25T05:49:08;101213.69;;;5.19;100.00
59513;BME280;45330;51.634;5.562;2023-04-25T05:51:33;101222.09;;;5.10;100.00
59513;BME280;45330;51.634;5.562;2023-04-25T05:53:59;101215.00;;;5.02;100.00
59513;BME280;45330;51.634;5.562;2023-04-25T05:56:24;101223.66;;;5.02;100.00
59513;BME280;45330;51.634;5.562;2023-04-25T05:58:50;101224.56;;;5.06;100.00
59513;BME280;45330;51.634;5.562;2023-04-25T06:01:15;101224.66;;;5.10;100.00
59513;BME280;45330;51.634;5.562;2023-04-25T06:03:41;101240.44;;;5.24;100.00
59513;BME280;45330;51.634;5.562;2023-04-25T06:06:08;101204.50;;;5.75;100.00
59513;BME280;45330;51.634;5.562;2023-04-25T06:08:33;101223.63;;;6.29;100.00
59513;BME280;45330;51.634;5.562;2023-04-25T06:10:59;101220.41;;;6.42;100.00
59513;BME280;45330;51.634;5.562;2023-04-25T06:13:24;101213.69;;;6.53;100.00
59513;BME280;45330;51.634;5.562;2023-04-25T06:15:50;101231.69;;;7.01;100.00
59513;BME280;45330;51.634;5.562;2023-04-25T06:18:15;101235.06;;;7.58;100.00
59513;BME280;45330;51.634;5.562;2023-04-25T06:20:40;101237.66;;;7.60;100.00
59513;BME280;45330;51.634;5.562;2023-04-25T06:23:06;101228.81;;;7.45;100.00
59513;BME280;45330;51.634;5.562;2023-04-25T06:25:31;101240.72;;;7.31;100.00
59513;BME280;45330;51.634;5.562;2023-04-25T06:27:57;101231.00;;;7.14;100.00
59513;BME280;45330;51.634;5.562;2023-04-25T06:30:22;101234.25;;;6.99;100.00
59513;BME280;45330;51.634;5.562;2023-04-25T06:32:51;101220.91;;;6.73;100.00
59513;BME280;45330;51.634;5.562;2023-04-25T06:35:16;101230.25;;;6.65;100.00
59513;BME280;45330;51.634;5.562;2023-04-25T06:37:41;101221.31;;;6.44;100.00
59513;BME280;45330;51.634;5.562;2023-04-25T06:40:07;101229.63;;;6.26;100.00
59513;BME280;45330;51.634;5.562;2023-04-25T06:42:33;101245.16;;;6.29;100.00
59513;BME280;45330;51.634;5.562;2023-04-25T06:44:58;101253.75;;;6.28;100.00
59513;BME280;45330;51.634;5.562;2023-04-25T06:47:24;101253.81;;;6.31;100.00
59513;BME280;45330;51.634;5.562;2023-04-25T06:49:49;101244.97;;;6.20;100.00
59513;BME280;45330;51.634;5.562;2023-04-25T06:52:15;101227.59;;;6.10;100.00
59513;BME280;45330;51.634;5.562;2023-04-25T06:54:40;101242.47;;;6.23;100.00
59513;BME280;45330;51.634;5.562;2023-04-25T06:57:06;101259.88;;;6.33;100.00
59513;BME280;45330;51.634;5.562;2023-04-25T06:59:31;101269.50;;;6.42;100.00
59513;BME280;45330;51.634;5.562;2023-04-25T07:01:57;101260.94;;;6.43;100.00
59513;BME280;45330;51.634;5.562;2023-04-25T07:04:23;101277.72;;;6.67;100.00
59513;BME280;45330;51.634;5.562;2023-04-25T07:06:48;101276.25;;;6.84;100.00
59513;BME280;45330;51.634;5.562;2023-04-25T07:09:14;101283.59;;;7.10;100.00
59513;BME280;45330;51.634;5.562;2023-04-25T07:11:40;101284.84;;;7.37;100.00
59513;BME280;45330;51.634;5.562;2023-04-25T07:14:05;101285.00;;;7.51;100.00
59513;BME280;45330;51.634;5.562;2023-04-25T07:16:30;101272.78;;;7.41;100.00
59513;BME280;45330;51.634;5.562;2023-04-25T07:18:56;101286.47;;;7.32;100.00
59513;BME280;45330;51.634;5.562;2023-04-25T07:21:21;101273.34;;;7.19;100.00
59513;BME280;45330;51.634;5.562;2023-04-25T07:23:47;101291.59;;;7.27;100.00
59513;BME280;45330;51.634;5.562;2023-04-25T07:26:12;101293.28;;;7.25;100.00
59513;BME280;45330;51.634;5.562;2023-04-25T07:28:38;101291.59;;;7.27;100.00
59513;BME280;45330;51.634;5.562;2023-04-25T07:31:03;101297.00;;;7.44;100.00
59513;BME280;45330;51.634;5.562;2023-04-25T07:33:29;101290.09;;;7.45;100.00
59513;BME280;45330;51.634;5.562;2023-04-25T07:35:54;101303.19;;;7.54;100.00
59513;BME280;45330;51.634;5.562;2023-04-25T07:38:20;101298.84;;;7.53;100.00
59513;BME280;45330;51.634;5.562;2023-04-25T07:40:47;101299.66;;;7.49;100.00
59513;BME280;45330;51.634;5.562;2023-04-25T07:43:13;101319.66;;;7.59;100.00
59513;BME280;45330;51.634;5.562;2023-04-25T07:45:42;101303.22;;;7.55;100.00
59513;BME280;45330;51.634;5.562;2023-04-25T07:48:07;101323.56;;;7.92;100.00
59513;BME280;45330;51.634;5.562;2023-04-25T07:50:33;101337.47;;;8.00;100.00
59513;BME280;45330;51.634;5.562;2023-04-25T07:52:58;101346.88;;;7.94;100.00
59513;BME280;45330;51.634;5.562;2023-04-25T07:55:23;101326.25;;;8.01;100.00
59513;BME280;45330;51.634;5.562;2023-04-25T07:57:49;101343.03;;;8.31;100.00
59513;BME280;45330;51.634;5.562;2023-04-25T08:00:14;101337.19;;;8.51;100.00
59513;BME280;45330;51.634;5.562;2023-04-25T08:02:40;101340.75;;;8.61;100.00
59513;BME280;45330;51.634;5.562;2023-04-25T08:05:06;101316.59;;;8.66;100.00
59513;BME280;45330;51.634;5.562;2023-04-25T08:07:33;101327.28;;;9.00;100.00
59513;BME280;45330;51.634;5.562;2023-04-25T08:09:59;101347.53;;;9.48;100.00
59513;BME280;45330;51.634;5.562;2023-04-25T08:12:24;101346.66;;;9.47;93.28
59513;BME280;45330;51.634;5.562;2023-04-25T08:14:50;101361.53;;;9.74;94.97
59513;BME280;45330;51.634;5.562;2023-04-25T08:17:15;101363.25;;;9.68;88.58
59513;BME280;45330;51.634;5.562;2023-04-25T08:19:41;101365.59;;;9.31;89.40
59513;BME280;45330;51.634;5.562;2023-04-25T08:22:06;101370.88;;;9.40;85.77
59513;BME280;45330;51.634;5.562;2023-04-25T08:24:31;101354.38;;;9.39;87.13
59513;BME280;45330;51.634;5.562;2023-04-25T08:26:57;101365.75;;;9.52;83.36
59513;BME280;45330;51.634;5.562;2023-04-25T08:29:24;101374.53;;;9.73;82.43
59513;BME280;45330;51.634;5.562;2023-04-25T08:31:51;101362.44;;;9.78;78.38
59513;BME280;45330;51.634;5.562;2023-04-25T08:34:18;101376.38;;;9.95;77.91
59513;BME280;45330;51.634;5.562;2023-04-25T08:36:43;101384.25;;;10.05;78.55
59513;BME280;45330;51.634;5.562;2023-04-25T08:39:09;101368.59;;;9.94;74.04
59513;BME280;45330;51.634;5.562;2023-04-25T08:41:36;101382.59;;;10.25;74.89
59513;BME280;45330;51.634;5.562;2023-04-25T08:44:03;101368.81;;;10.40;74.77
59513;BME280;45330;51.634;5.562;2023-04-25T08:46:29;101383.59;;;10.58;71.23
59513;BME280;45330;51.634;5.562;2023-04-25T08:49:00;101384.31;;;10.25;75.83
59513;BME280;45330;51.634;5.562;2023-04-25T08:51:26;101384.97;;;9.79;75.05
59513;BME280;45330;51.634;5.562;2023-04-25T08:53:53;101400.31;;;9.45;78.21
59513;BME280;45330;51.634;5.562;2023-04-25T08:56:19;101398.19;;;8.95;78.03
59513;BME280;45330;51.634;5.562;2023-04-25T08:58:50;101413.81;;;8.99;82.08
59513;BME280;45330;51.634;5.562;2023-04-25T09:01:16;101397.31;;;8.97;84.81
59513;BME280;45330;51.634;5.562;2023-04-25T09:03:43;101400.81;;;8.96;87.27
59513;BME280;45330;51.634;5.562;2023-04-25T09:06:11;101409.28;;;8.80;89.53
59513;BME280;45330;51.634;5.562;2023-04-25T09:08:37;101418.00;;;8.86;92.81
59513;BME280;45330;51.634;5.562;2023-04-25T09:11:02;101423.44;;;9.13;87.54
59513;BME280;45330;51.634;5.562;2023-04-25T09:13:28;101417.78;;;9.63;82.78
59513;BME280;45330;51.634;5.562;2023-04-25T09:15:55;101425.94;;;10.25;79.94
59513;BME280;45330;51.634;5.562;2023-04-25T09:18:25;101451.25;;;10.55;74.04
59513;BME280;45330;51.634;5.562;2023-04-25T09:20:56;101453.81;;;10.41;75.63
59513;BME280;45330;51.634;5.562;2023-04-25T09:23:22;101448.31;;;9.93;74.40
59513;BME280;45330;51.634;5.562;2023-04-25T09:25:50;101454.41;;;8.92;87.17
59513;BME280;45330;51.634;5.562;2023-04-25T09:28:16;101482.03;;;7.65;100.00
59513;BME280;45330;51.634;5.562;2023-04-25T09:30:42;101485.16;;;6.95;100.00
59513;BME280;45330;51.634;5.562;2023-04-25T09:33:09;101465.31;;;6.52;100.00
59513;BME280;45330;51.634;5.562;2023-04-25T09:35:40;101483.53;;;6.57;100.00
59513;BME280;45330;51.634;5.562;2023-04-25T09:38:12;101491.97;;;6.48;100.00
59513;BME280;45330;51.634;5.562;2023-04-25T09:40:42;101457.97;;;6.30;100.00
59513;BME280;45330;51.634;5.562;2023-04-25T09:43:26;101486.41;;;6.31;100.00
59513;BME280;45330;51.634;5.562;2023-04-25T09:45:54;101485.88;;;6.05;100.00
59513;BME280;45330;51.634;5.562;2023-04-25T09:48:23;101487.34;;;5.97;100.00
59513;BME280;45330;51.634;5.562;2023-04-25T09:51:12;101487.50;;;6.01;100.00
59513;BME280;45330;51.634;5.562;2023-04-25T09:53:43;101479.16;;;6.13;100.00
59513;BME280;45330;51.634;5.562;2023-04-25T09:56:11;101466.38;;;6.20;100.00
59513;BME280;45330;51.634;5.562;2023-04-25T09:58:38;101473.69;;;6.39;100.00
59513;BME280;45330;51.634;5.562;2023-04-25T10:01:06;101481.91;;;6.62;100.00
59513;BME280;45330;51.634;5.562;2023-04-25T10:03:37;101482.97;;;6.72;100.00
59513;BME280;45330;51.634;5.562;2023-04-25T10:06:12;101458.84;;;6.73;100.00
59513;BME280;45330;51.634;5.562;2023-04-25T10:08:39;101473.19;;;7.01;100.00
59513;BME280;45330;51.634;5.562;2023-04-25T10:11:07;101495.34;;;7.33;100.00
59513;BME280;45330;51.634;5.562;2023-04-25T10:13:34;101463.59;;;7.45;100.00
59513;BME280;45330;51.634;5.562;2023-04-25T10:16:02;101464.84;;;7.68;100.00
59513;BME280;45330;51.634;5.562;2023-04-25T10:18:29;101468.75;;;7.98;100.00
59513;BME280;45330;51.634;5.562;2023-04-25T10:20:57;101455.66;;;7.89;98.96
59513;BME280;45330;51.634;5.562;2023-04-25T10:23:23;101474.78;;;7.99;97.33
59513;BME280;45330;51.634;5.562;2023-04-25T10:25:53;101466.34;;;8.11;98.77
59513;BME280;45330;51.634;5.562;2023-04-25T10:28:20;101466.63;;;8.34;94.08
59513;BME280;45330;51.634;5.562;2023-04-25T10:31:03;101462.66;;;8.59;90.08
59513;BME280;45330;51.634;5.562;2023-04-25T10:33:33;101469.94;;;8.88;90.42
59513;BME280;45330;51.634;5.562;2023-04-25T10:36:17;101470.16;;;9.13;85.23
59513;BME280;45330;51.634;5.562;2023-04-25T10:38:44;101479.19;;;9.55;79.64
59513;BME280;45330;51.634;5.562;2023-04-25T10:41:11;101459.63;;;10.00;78.74
59513;BME280;45330;51.634;5.562;2023-04-25T10:43:42;101466.81;;;10.41;75.35
59513;BME280;45330;51.634;5.562;2023-04-25T10:46:15;101493.81;;;10.67;74.36
59513;BME280;45330;51.634;5.562;2023-04-25T10:48:55;101487.69;;;10.55;71.40
59513;BME280;45330;51.634;5.562;2023-04-25T10:54:01;101481.34;;;10.10;74.12
59513;BME280;45330;51.634;5.562;2023-04-25T10:56:32;101511.25;;;9.52;79.12
59513;BME280;45330;51.634;5.562;2023-04-25T10:59:18;101506.22;;;8.85;83.50
59513;BME280;45330;51.634;5.562;2023-04-25T11:01:46;101510.91;;;8.45;86.59
59513;BME280;45330;51.634;5.562;2023-04-25T11:09:38;101496.88;;;7.73;91.75
59513;BME280;45330;51.634;5.562;2023-04-25T11:12:04;101510.81;;;7.82;92.53
59513;BME280;45330;51.634;5.562;2023-04-25T11:14:30;101521.50;;;8.00;94.14
59513;BME280;45330;51.634;5.562;2023-04-25T11:16:57;101524.34;;;8.19;92.22
59513;BME280;45330;51.634;5.562;2023-04-25T11:19:23;101518.41;;;8.26;93.41
59513;BME280;45330;51.634;5.562;2023-04-25T11:21:49;101526.53;;;8.49;91.39
59513;BME280;45330;51.634;5.562;2023-04-25T11:24:18;101525.84;;;8.63;90.73
59513;BME280;45330;51.634;5.562;2023-04-25T11:26:46;101516.63;;;8.85;90.50
59513;BME280;45330;51.634;5.562;2023-04-25T11:29:12;101510.06;;;9.21;90.30
59513;BME280;45330;51.634;5.562;2023-04-25T11:31:38;101526.88;;;9.55;87.21
59513;BME280;45330;51.634;5.562;2023-04-25T11:34:03;101519.22;;;9.72;87.52
59513;BME280;45330;51.634;5.562;2023-04-25T11:36:29;101528.69;;;9.66;80.30
59513;BME280;45330;51.634;5.562;2023-04-25T11:38:55;101519.16;;;9.66;75.88
59513;BME280;45330;51.634;5.562;2023-04-25T11:41:21;101545.34;;;9.91;74.99
59513;BME280;45330;51.634;5.562;2023-04-25T11:43:48;101517.47;;;9.74;72.68
59513;BME280;45330;51.634;5.562;2023-04-25T11:46:14;101535.84;;;9.94;71.90
59513;BME280;45330;51.634;5.562;2023-04-25T11:48:42;101522.97;;;10.08;71.99
59513;BME280;45330;51.634;5.562;2023-04-25T11:51:08;101536.91;;;10.21;69.38
59513;BME280;45330;51.634;5.562;2023-04-25T11:53:34;101526.44;;;10.15;70.50
59513;BME280;45330;51.634;5.562;2023-04-25T11:56:00;101520.38;;;10.13;71.28
59513;BME280;45330;51.634;5.562;2023-04-25T11:58:26;101535.91;;;10.02;71.17
59513;BME280;45330;51.634;5.562;2023-04-25T12:00:52;101529.75;;;9.94;68.22
59513;BME280;45330;51.634;5.562;2023-04-25T12:03:18;101538.50;;;10.01;61.84
59513;BME280;45330;51.634;5.562;2023-04-25T12:05:44;101539.47;;;10.18;61.37
59513;BME280;45330;51.634;5.562;2023-04-25T12:08:14;101531.56;;;10.01;58.34
59513;BME280;45330;51.634;5.562;2023-04-25T12:10:43;101526.22;;;9.81;58.51
59513;BME280;45330;51.634;5.562;2023-04-25T12:13:22;101537.53;;;9.86;61.81
59513;BME280;45330;51.634;5.562;2023-04-25T12:15:48;101527.81;;;9.65;58.93
59513;BME280;45330;51.634;5.562;2023-04-25T12:18:14;101551.25;;;9.71;56.86
59513;BME280;45330;51.634;5.562;2023-04-25T12:20:41;101541.75;;;9.73;54.32
59513;BME280;45330;51.634;5.562;2023-04-25T12:23:06;101548.75;;;9.81;53.64
59513;BME280;45330;51.634;5.562;2023-04-25T12:25:44;101548.91;;;10.02;56.65
59513;BME280;45330;51.634;5.562;2023-04-25T12:28:18;101543.75;;;10.08;53.69
59513;BME280;45330;51.634;5.562;2023-04-25T12:31:04;101541.91;;;9.93;54.84
59513;BME280;45330;51.634;5.562;2023-04-25T12:33:32;101543.56;;;9.87;55.24
59513;BME280;45330;51.634;5.562;2023-04-25T12:35:58;101547.13;;;9.95;56.00
59513;BME280;45330;51.634;5.562;2023-04-25T12:38:30;101529.66;;;9.82;54.62
59513;BME280;45330;51.634;5.562;2023-04-25T12:40:56;101534.13;;;9.98;56.60
59513;BME280;45330;51.634;5.562;2023-04-25T12:43:22;101557.78;;;10.34;56.61
59513;BME280;45330;51.634;5.562;2023-04-25T12:45:49;101553.59;;;10.48;58.78
59513;BME280;45330;51.634;5.562;2023-04-25T12:48:15;101565.75;;;10.51;64.10
59513;BME280;45330;51.634;5.562;2023-04-25T12:50:41;101551.72;;;10.33;66.04
59513;BME280;45330;51.634;5.562;2023-04-25T12:53:06;101554.38;;;10.36;66.77
59513;BME280;45330;51.634;5.562;2023-04-25T12:55:32;101563.91;;;10.37;65.01
59513;BME280;45330;51.634;5.562;2023-04-25T12:57:57;101577.69;;;10.27;67.30